Terminal Aerodrome Forecast
Issued by NWS

Home | Current Version | Previous Version | Text Only | Print | Product List | Glossary On
Versions: 1 2 3 4 5 6 7 8 9 10 11 12 13 14
000
FTUS43 KOAX 051120
TAFCDR
TAF
KCDR 051120Z 0512/0612 20008KT 5SM BR SCT009
     FM051500 16010G20KT P6SM SCT020 BKN030
     FM060000 15015KT 5SM -SHRA SCT007 OVC015=

USA.gov is the U.S. government's official web portal to all federal, state and local government web resources and services.